Time;durP1;ratioP1;P1;durP2;ratioP2;P2;SDS_P1;SDS_P2;PMS_P1;PMS_P2;Temp;Humidity;BMP_temperature;BMP_pressure;BME280_temperature;BME280_humidity;BME280_pressure;Samples;Min_cycle;Max_cycle;Signal;HPM_P1;HPM_P2
2024/01/06 00:02:11;;;;;;;3.70;3.10;;;;;;;;;;5035666;28;20452;-86
2024/01/06 00:04:43;;;;;;;3.67;2.63;;;;;;;;;;5035708;28;20553;-87
2024/01/06 00:07:25;;;;;;;11.13;3.10;;;;;;;;;;5034503;28;20534;-89
2024/01/06 00:10:09;;;;;;;3.40;3.00;;;;;;;;;;5033473;28;20442;-86
2024/01/06 00:12:48;;;;;;;2.80;2.60;;;;;;;;;;5025602;28;20452;-87
2024/01/06 00:15:32;;;;;;;3.43;3.03;;;;;;;;;;5045480;28;20455;-86
2024/01/06 00:18:01;;;;;;;4.03;3.50;;;;;;;;;;5051243;28;20473;-88
2024/01/06 00:20:57;;;;;;;3.93;3.30;;;;;;;;;;5038013;28;20453;-84
2024/01/06 00:23:36;;;;;;;4.10;3.70;;;;;;;;;;5055280;28;20576;-87
2024/01/06 00:26:27;;;;;;;3.73;3.37;;;;;;;;;;5024591;28;21081;-87
2024/01/06 00:29:11;;;;;;;3.30;3.10;;;;;;;;;;5021908;28;20466;-86
2024/01/06 00:31:54;;;;;;;3.43;3.23;;;;;;;;;;5031349;28;22464;-85
2024/01/06 00:34:33;;;;;;;4.87;4.13;;;;;;;;;;5037427;28;20443;-86
2024/01/06 00:37:12;;;;;;;;;;;;;;;;;;;;;
2024/01/06 00:40:12;;;;;;;;;;;;;;;;;;;;;
2024/01/06 00:43:00;;;;;;;4.80;3.90;;;;;;;;;;5066055;28;20428;-85
2024/01/06 00:45:31;;;;;;;5.00;4.50;;;;;;;;;;5051705;28;20548;-87
2024/01/06 00:48:02;;;;;;;5.63;4.10;;;;;;;;;;5043388;28;20515;-86
2024/01/06 00:50:38;;;;;;;4.27;3.87;;;;;;;;;;5025345;28;20445;-87
2024/01/06 00:53:20;;;;;;;4.53;4.03;;;;;;;;;;5026541;28;20483;-87
2024/01/06 00:56:09;;;;;;;4.00;3.60;;;;;;;;;;5044336;28;20463;-85
2024/01/06 00:58:41;;;;;;;4.10;3.70;;;;;;;;;;5026716;28;20491;-87
2024/01/06 01:01:26;;;;;;;4.30;4.00;;;;;;;;;;5026789;28;20444;-86
2024/01/06 01:03:58;;;;;;;4.40;4.00;;;;;;;;;;5042705;28;20469;-87
2024/01/06 01:06:37;;;;;;;4.90;4.17;;;;;;;;;;5041504;28;20492;-86
2024/01/06 01:09:14;;;;;;;4.37;3.97;;;;;;;;;;5044672;28;22085;-87
2024/01/06 01:11:55;;;;;;;4.87;4.30;;;;;;;;;;5024105;28;20466;-86
2024/01/06 01:14:32;;;;;;;6.53;5.10;;;;;;;;;;5026502;28;20515;-85
2024/01/06 01:17:04;;;;;;;5.03;4.47;;;;;;;;;;5017998;28;20567;-84
2024/01/06 01:19:34;;;;;;;5.10;4.60;;;;;;;;;;5026906;28;22184;-83
2024/01/06 01:22:09;;;;;;;4.70;4.20;;;;;;;;;;5021155;28;20793;-85
2024/01/06 01:24:46;;;;;;;5.43;4.93;;;;;;;;;;5017351;28;20577;-85
2024/01/06 01:27:36;;;;;;;5.00;4.50;;;;;;;;;;5021481;28;20495;-84
2024/01/06 01:30:12;;;;;;;5.27;4.50;;;;;;;;;;5038994;28;20460;-85
2024/01/06 01:35:54;;;;;;;7.43;5.60;;;;;;;;;;5039479;28;20457;-85
2024/01/06 01:39:13;;;;;;;6.10;5.50;;;;;;;;;;5042723;28;20463;-85
2024/01/06 01:41:27;;;;;;;5.23;4.73;;;;;;;;;;5048835;28;20464;-86
2024/01/06 01:44:06;;;;;;;5.20;4.70;;;;;;;;;;5061849;28;20483;-87
2024/01/06 01:46:39;;;;;;;7.90;5.53;;;;;;;;;;5032797;28;20473;-86
2024/01/06 01:49:14;;;;;;;5.90;5.33;;;;;;;;;;5035439;28;20747;-88
2024/01/06 01:51:51;;;;;;;5.30;4.87;;;;;;;;;;5039559;28;20464;-87
2024/01/06 01:57:31;;;;;;;6.60;5.60;;;;;;;;;;5057345;28;20468;-88
2024/01/06 02:00:13;;;;;;;6.20;5.60;;;;;;;;;;5053847;28;20468;-87
2024/01/06 02:02:50;;;;;;;6.73;5.70;;;;;;;;;;5041251;28;20486;-86
2024/01/06 02:05:34;;;;;;;6.20;5.60;;;;;;;;;;5021005;28;20567;-88
2024/01/06 02:08:13;;;;;;;6.43;5.27;;;;;;;;;;5026162;28;20474;-87
2024/01/06 02:10:47;;;;;;;5.50;4.93;;;;;;;;;;5024746;28;20456;-87
2024/01/06 02:13:14;;;;;;;5.37;4.87;;;;;;;;;;5019800;28;20669;-85
2024/01/06 02:15:44;;;;;;;6.50;5.47;;;;;;;;;;5020901;28;20465;-87
2024/01/06 02:18:26;;;;;;;5.60;5.10;;;;;;;;;;5017969;28;20445;-86
2024/01/06 02:21:13;;;;;;;5.27;4.77;;;;;;;;;;5032232;28;20463;-85
2024/01/06 02:23:43;;;;;;;5.87;5.27;;;;;;;;;;5036607;28;20472;-86
2024/01/06 02:26:26;;;;;;;6.30;5.53;;;;;;;;;;5014805;28;20902;-87
2024/01/06 02:28:59;;;;;;;5.97;5.37;;;;;;;;;;5018456;28;20535;-88
2024/01/06 02:31:43;;;;;;;8.70;5.70;;;;;;;;;;5038800;28;20467;-84
2024/01/06 02:34:27;;;;;;;6.33;5.73;;;;;;;;;;5061628;28;20433;-87
2024/01/06 02:36:59;;;;;;;5.80;5.20;;;;;;;;;;5040661;28;20467;-86
2024/01/06 02:39:46;;;;;;;5.73;4.60;;;;;;;;;;5035645;28;20993;-86
2024/01/06 02:42:27;;;;;;;6.80;6.10;;;;;;;;;;5050992;28;20451;-87
2024/01/06 02:45:10;;;;;;;7.00;6.30;;;;;;;;;;5049011;28;20540;-87
2024/01/06 02:47:43;;;;;;;5.87;5.27;;;;;;;;;;5027800;28;20476;-87
2024/01/06 02:50:13;;;;;;;7.20;5.90;;;;;;;;;;5031434;28;20481;-88
2024/01/06 02:52:58;;;;;;;7.33;6.13;;;;;;;;;;5031248;28;20481;-86
2024/01/06 02:55:27;;;;;;;7.37;6.57;;;;;;;;;;5029523;28;20987;-87
2024/01/06 02:57:58;;;;;;;6.07;5.47;;;;;;;;;;5044042;28;21452;-87
2024/01/06 03:00:28;;;;;;;6.40;5.80;;;;;;;;;;5035452;28;20478;-87
2024/01/06 03:03:07;;;;;;;6.10;5.50;;;;;;;;;;5035175;28;20467;-88
2024/01/06 03:05:42;;;;;;;6.17;5.57;;;;;;;;;;5015061;28;20499;-86
2024/01/06 03:08:10;;;;;;;6.57;5.97;;;;;;;;;;5035326;28;20516;-84
2024/01/06 03:10:42;;;;;;;7.13;5.63;;;;;;;;;;5034405;28;20544;-87
2024/01/06 03:13:17;;;;;;;6.50;5.57;;;;;;;;;;5017367;28;20463;-87
2024/01/06 03:15:48;;;;;;;6.20;5.70;;;;;;;;;;5014237;28;20464;-86
2024/01/06 03:18:17;;;;;;;6.53;5.40;;;;;;;;;;5015248;28;20469;-87
2024/01/06 03:20:47;;;;;;;5.93;5.30;;;;;;;;;;5017444;28;20503;-86
2024/01/06 03:23:17;;;;;;;7.67;5.67;;;;;;;;;;5025923;28;20496;-86
2024/01/06 03:25:44;;;;;;;6.67;5.67;;;;;;;;;;5033691;28;20477;-86
2024/01/06 03:28:20;;;;;;;9.40;6.17;;;;;;;;;;5037769;28;21025;-87
2024/01/06 03:31:03;;;;;;;8.47;6.33;;;;;;;;;;5039387;28;20917;-86
2024/01/06 03:33:42;;;;;;;8.83;6.90;;;;;;;;;;5029469;28;20543;-86
2024/01/06 03:36:15;;;;;;;8.83;7.00;;;;;;;;;;5026598;28;20449;-87
2024/01/06 03:38:48;;;;;;;8.90;7.50;;;;;;;;;;5041813;28;20468;-86
2024/01/06 03:41:15;;;;;;;8.50;7.30;;;;;;;;;;5020523;28;20526;-87
2024/01/06 03:43:53;;;;;;;11.10;7.00;;;;;;;;;;5019967;28;20475;-89
2024/01/06 03:46:22;;;;;;;9.53;7.63;;;;;;;;;;5030327;28;20527;-87
2024/01/06 03:48:56;;;;;;;11.07;8.10;;;;;;;;;;5033961;28;20577;-88
2024/01/06 03:51:33;;;;;;;11.20;8.87;;;;;;;;;;5019122;28;20563;-88
2024/01/06 03:54:05;;;;;;;11.17;8.83;;;;;;;;;;5033137;28;20863;-87
2024/01/06 03:56:32;;;;;;;9.60;7.67;;;;;;;;;;5030743;28;20579;-87
2024/01/06 03:59:05;;;;;;;10.67;7.40;;;;;;;;;;5033696;28;20456;-86
2024/01/06 04:01:39;;;;;;;9.30;7.60;;;;;;;;;;5041974;28;20461;-89
2024/01/06 04:04:27;;;;;;;10.80;8.23;;;;;;;;;;5030649;28;20548;-88
2024/01/06 04:06:54;;;;;;;10.43;8.97;;;;;;;;;;5029788;28;20582;-87
2024/01/06 04:09:25;;;;;;;10.47;9.37;;;;;;;;;;5026990;28;20457;-85
2024/01/06 04:11:52;;;;;;;10.10;8.70;;;;;;;;;;5026001;28;20491;-85
2024/01/06 04:14:22;;;;;;;13.87;10.10;;;;;;;;;;5024704;28;21082;-88
2024/01/06 04:16:52;;;;;;;12.17;9.13;;;;;;;;;;5024989;28;20457;-87
2024/01/06 04:19:22;;;;;;;13.13;9.80;;;;;;;;;;5024263;28;20452;-87
2024/01/06 04:21:52;;;;;;;12.63;9.90;;;;;;;;;;5026608;28;20506;-87
2024/01/06 04:24:29;;;;;;;13.27;10.10;;;;;;;;;;5028596;28;20484;-86
2024/01/06 04:27:00;;;;;;;13.93;10.17;;;;;;;;;;5044975;28;22548;-88
2024/01/06 04:29:37;;;;;;;11.93;9.80;;;;;;;;;;5032711;28;20472;-87
2024/01/06 04:32:07;;;;;;;12.23;9.20;;;;;;;;;;5049825;28;20484;-89
2024/01/06 04:34:45;;;;;;;15.67;11.00;;;;;;;;;;5032457;28;20468;-88
2024/01/06 04:37:13;;;;;;;16.63;11.13;;;;;;;;;;5020971;28;20508;-89
2024/01/06 04:39:45;;;;;;;16.50;11.57;;;;;;;;;;5031245;28;20452;-87
2024/01/06 04:42:14;;;;;;;16.57;12.07;;;;;;;;;;5031476;28;20469;-87
2024/01/06 04:44:55;;;;;;;14.90;11.50;;;;;;;;;;5033274;28;20483;-85
2024/01/06 04:47:27;;;;;;;17.27;10.60;;;;;;;;;;5032069;28;20476;-84
2024/01/06 04:49:57;;;;;;;16.83;11.30;;;;;;;;;;5033176;28;20460;-88
2024/01/06 04:52:30;;;;;;;20.03;11.70;;;;;;;;;;5033601;28;20448;-86
2024/01/06 04:55:02;;;;;;;17.67;11.73;;;;;;;;;;5037583;28;20555;-88
2024/01/06 04:57:36;;;;;;;14.37;10.93;;;;;;;;;;5037140;28;20520;-86
2024/01/06 05:00:04;;;;;;;18.70;11.40;;;;;;;;;;5032743;28;20456;-88
2024/01/06 05:02:37;;;;;;;16.63;12.23;;;;;;;;;;5060400;28;20538;-85
2024/01/06 05:05:10;;;;;;;20.30;13.73;;;;;;;;;;5051479;28;20484;-88
2024/01/06 05:07:51;;;;;;;21.30;13.07;;;;;;;;;;5059543;28;20464;-85
2024/01/06 05:10:28;;;;;;;15.10;12.00;;;;;;;;;;5046459;28;20468;-87
2024/01/06 05:12:58;;;;;;;18.30;12.43;;;;;;;;;;5051240;28;20452;-85
2024/01/06 05:15:27;;;;;;;15.10;11.17;;;;;;;;;;5052881;28;20444;-87
2024/01/06 05:20:54;;;;;;;16.00;11.13;;;;;;;;;;5030477;28;20458;-85
2024/01/06 05:23:26;;;;;;;15.30;11.50;;;;;;;;;;5053497;28;20575;-87
2024/01/06 05:25:59;;;;;;;16.17;11.00;;;;;;;;;;5039439;28;20499;-89
2024/01/06 05:28:32;;;;;;;17.83;11.63;;;;;;;;;;5039585;28;20454;-88
2024/01/06 05:31:10;;;;;;;15.00;11.03;;;;;;;;;;5026178;28;20491;-87
2024/01/06 05:33:42;;;;;;;16.60;10.77;;;;;;;;;;5036597;28;20542;-84
2024/01/06 05:36:13;;;;;;;16.30;10.30;;;;;;;;;;5043446;28;20982;-85
2024/01/06 05:38:44;;;;;;;17.37;12.30;;;;;;;;;;5039004;28;20472;-88
2024/01/06 05:41:19;;;;;;;15.50;10.27;;;;;;;;;;5042288;28;20457;-87
2024/01/06 05:43:59;;;;;;;14.30;10.57;;;;;;;;;;5057007;28;20470;-87
2024/01/06 05:46:43;;;;;;;13.73;9.90;;;;;;;;;;5038530;28;20535;-87
2024/01/06 05:49:21;;;;;;;14.53;9.70;;;;;;;;;;5052668;28;20455;-86
2024/01/06 05:51:56;;;;;;;12.87;8.40;;;;;;;;;;5039516;28;20433;-87
2024/01/06 05:54:28;;;;;;;17.10;10.20;;;;;;;;;;5038869;28;20524;-88
2024/01/06 05:56:59;;;;;;;17.70;10.87;;;;;;;;;;5029808;28;20479;-87
2024/01/06 05:59:33;;;;;;;12.97;9.63;;;;;;;;;;5036878;28;20453;-87
2024/01/06 06:02:06;;;;;;;14.00;8.73;;;;;;;;;;5029652;28;20458;-85
2024/01/06 06:04:55;;;;;;;13.77;9.03;;;;;;;;;;5032570;28;20484;-87
2024/01/06 06:07:32;;;;;;;12.70;8.40;;;;;;;;;;5029027;28;20503;-87
2024/01/06 06:10:03;;;;;;;11.13;7.60;;;;;;;;;;5044386;28;21075;-88
2024/01/06 06:12:34;;;;;;;9.70;6.93;;;;;;;;;;5044912;28;20458;-88
2024/01/06 06:15:12;;;;;;;10.93;7.60;;;;;;;;;;5031967;28;20506;-88
2024/01/06 06:17:43;;;;;;;13.97;8.30;;;;;;;;;;5046694;28;20469;-89
2024/01/06 06:20:14;;;;;;;8.37;5.80;;;;;;;;;;5031603;28;20462;-87
2024/01/06 06:22:52;;;;;;;9.70;6.20;;;;;;;;;;5030164;28;20469;-88
2024/01/06 06:25:29;;;;;;;8.60;5.30;;;;;;;;;;5051699;28;20481;-88
2024/01/06 06:28:04;;;;;;;6.70;4.70;;;;;;;;;;5052520;28;20462;-86
2024/01/06 06:30:32;;;;;;;9.13;5.03;;;;;;;;;;5037245;28;20528;-84
2024/01/06 06:33:05;;;;;;;8.10;4.93;;;;;;;;;;5034144;28;20456;-87
2024/01/06 06:35:39;;;;;;;5.60;4.30;;;;;;;;;;5034467;28;20492;-88
2024/01/06 06:38:09;;;;;;;7.90;5.20;;;;;;;;;;5031171;28;20568;-86
2024/01/06 06:41:06;;;;;;;7.90;5.40;;;;;;;;;;5032817;28;21100;-86
2024/01/06 06:43:35;;;;;;;6.80;5.03;;;;;;;;;;5052512;28;20438;-86
2024/01/06 06:46:04;;;;;;;8.03;5.53;;;;;;;;;;5035686;28;20575;-87
2024/01/06 06:48:36;;;;;;;5.93;5.00;;;;;;;;;;5053106;28;20474;-86
2024/01/06 06:51:04;;;;;;;6.77;4.60;;;;;;;;;;5049790;28;20514;-85
2024/01/06 06:53:45;;;;;;;10.70;6.80;;;;;;;;;;5039237;28;20531;-87
2024/01/06 06:56:20;;;;;;;15.63;6.70;;;;;;;;;;5035009;28;20456;-87
2024/01/06 06:58:53;;;;;;;7.90;5.20;;;;;;;;;;5052135;28;20449;-87
2024/01/06 07:01:31;;;;;;;8.23;6.00;;;;;;;;;;5024879;28;20445;-88
2024/01/06 07:04:03;;;;;;;10.43;6.80;;;;;;;;;;5021358;28;20461;-88
2024/01/06 07:06:40;;;;;;;9.40;6.80;;;;;;;;;;5020051;28;21100;-88
2024/01/06 07:09:07;;;;;;;10.60;6.80;;;;;;;;;;5034141;28;20458;-86
2024/01/06 07:11:42;;;;;;;9.07;6.23;;;;;;;;;;5054900;28;20865;-85
2024/01/06 07:14:18;;;;;;;10.97;6.53;;;;;;;;;;5036364;28;20530;-87
2024/01/06 07:16:48;;;;;;;10.20;6.57;;;;;;;;;;5032368;28;20486;-87
2024/01/06 07:19:21;;;;;;;9.20;5.67;;;;;;;;;;5026557;28;20467;-87
2024/01/06 07:21:52;;;;;;;11.73;7.00;;;;;;;;;;5025364;28;20503;-86
2024/01/06 07:24:25;;;;;;;10.57;6.87;;;;;;;;;;5037166;28;20468;-88
2024/01/06 07:27:06;;;;;;;10.23;5.73;;;;;;;;;;5029506;28;20551;-86
2024/01/06 07:29:33;;;;;;;9.77;6.20;;;;;;;;;;5026541;28;20566;-89
2024/01/06 07:32:03;;;;;;;9.73;6.33;;;;;;;;;;5042562;28;20460;-89
2024/01/06 07:34:33;;;;;;;9.30;5.90;;;;;;;;;;5019000;28;20456;-87
2024/01/06 07:37:03;;;;;;;10.53;6.90;;;;;;;;;;5045888;28;20981;-86
2024/01/06 07:39:34;;;;;;;10.23;6.40;;;;;;;;;;5048170;28;20573;-85
2024/01/06 07:42:02;;;;;;;11.37;7.50;;;;;;;;;;5052439;28;20464;-84
2024/01/06 07:44:37;;;;;;;10.37;7.30;;;;;;;;;;5031031;28;20499;-86
2024/01/06 07:47:10;;;;;;;9.87;7.10;;;;;;;;;;5034193;28;20474;-86
2024/01/06 07:49:39;;;;;;;12.90;7.13;;;;;;;;;;5020657;28;20479;-84
2024/01/06 07:52:06;;;;;;;10.23;6.10;;;;;;;;;;5054360;28;20548;-85
2024/01/06 07:54:40;;;;;;;8.97;6.20;;;;;;;;;;5033745;28;20503;-87
2024/01/06 07:57:11;;;;;;;9.63;6.60;;;;;;;;;;5033259;28;20467;-86
2024/01/06 07:59:41;;;;;;;9.53;6.30;;;;;;;;;;5032883;28;20449;-87
2024/01/06 08:02:19;;;;;;;9.50;6.83;;;;;;;;;;5032796;28;20516;-87
2024/01/06 08:04:59;;;;;;;12.10;6.43;;;;;;;;;;5033450;28;20487;-87
2024/01/06 08:07:26;;;;;;;12.30;7.43;;;;;;;;;;5050023;28;20472;-87
2024/01/06 08:10:11;;;;;;;11.10;7.07;;;;;;;;;;5032139;28;20508;-86
2024/01/06 08:12:40;;;;;;;12.30;6.90;;;;;;;;;;5019396;28;20472;-87
2024/01/06 08:15:09;;;;;;;9.40;5.90;;;;;;;;;;5050991;28;20464;-84
2024/01/06 08:17:37;;;;;;;10.57;7.67;;;;;;;;;;5031418;28;20463;-87
2024/01/06 08:20:07;;;;;;;11.57;7.40;;;;;;;;;;5024764;28;20569;-86
2024/01/06 08:22:38;;;;;;;9.60;6.63;;;;;;;;;;5036042;28;20566;-88
2024/01/06 08:25:09;;;;;;;11.03;6.53;;;;;;;;;;5041222;28;20510;-87
2024/01/06 08:27:42;;;;;;;11.00;7.30;;;;;;;;;;5022681;28;20477;-86
2024/01/06 08:30:24;;;;;;;11.23;6.83;;;;;;;;;;5028554;28;20454;-85
2024/01/06 08:32:56;;;;;;;12.50;7.33;;;;;;;;;;5049001;28;20551;-86
2024/01/06 08:35:43;;;;;;;10.20;7.77;;;;;;;;;;5045003;28;20824;-86
2024/01/06 08:38:19;;;;;;;11.83;7.37;;;;;;;;;;5045658;28;20575;-88
2024/01/06 08:40:48;;;;;;;10.90;6.60;;;;;;;;;;5042392;28;20460;-86
2024/01/06 08:43:23;;;;;;;10.57;7.27;;;;;;;;;;5025609;28;20452;-85
2024/01/06 08:46:10;;;;;;;11.13;8.10;;;;;;;;;;5024945;28;20484;-85
2024/01/06 08:48:37;;;;;;;13.70;8.33;;;;;;;;;;5019445;28;20553;-85
2024/01/06 08:51:23;;;;;;;;;;;;;;;;;;;;;
2024/01/06 08:54:06;;;;;;;10.33;6.90;;;;;;;;;;5056487;28;20543;-85
2024/01/06 08:56:57;;;;;;;;;;;;;;;;;;;;;
2024/01/06 08:59:45;;;;;;;10.57;6.70;;;;;;;;;;5054692;28;20445;-85
2024/01/06 09:02:30;;;;;;;10.63;5.97;;;;;;;;;;5029137;28;20446;-87
2024/01/06 09:05:16;;;;;;;12.43;5.90;;;;;;;;;;5039485;28;20479;-86
2024/01/06 09:08:03;;;;;;;10.70;7.30;;;;;;;;;;5045343;28;20462;-86
2024/01/06 09:10:39;;;;;;;12.10;8.33;;;;;;;;;;5046222;28;20447;-86
2024/01/06 09:13:27;;;;;;;12.20;6.77;;;;;;;;;;5047646;28;20487;-85
2024/01/06 09:16:02;;;;;;;9.60;6.60;;;;;;;;;;5063176;28;20532;-84
2024/01/06 09:18:33;;;;;;;11.93;6.70;;;;;;;;;;5043425;28;20446;-88
2024/01/06 09:21:07;;;;;;;12.40;7.53;;;;;;;;;;5060612;28;20445;-85
2024/01/06 09:23:41;;;;;;;9.83;6.67;;;;;;;;;;5042537;28;20450;-85
2024/01/06 09:26:39;;;;;;;8.20;6.00;;;;;;;;;;5044234;28;20492;-86
2024/01/06 09:29:18;;;;;;;9.60;6.73;;;;;;;;;;5039624;28;20464;-87
2024/01/06 09:31:48;;;;;;;9.83;7.17;;;;;;;;;;5030197;28;20439;-88
2024/01/06 09:34:28;;;;;;;10.77;6.30;;;;;;;;;;5031646;28;20467;-84
2024/01/06 09:37:08;;;;;;;10.30;6.93;;;;;;;;;;5052093;28;21046;-85
2024/01/06 09:39:39;;;;;;;9.70;6.13;;;;;;;;;;5037379;28;20464;-86
2024/01/06 09:42:18;;;;;;;11.07;7.60;;;;;;;;;;5050201;28;20448;-86
2024/01/06 09:45:15;;;;;;;9.20;6.80;;;;;;;;;;5038592;28;20502;-86
2024/01/06 09:48:03;;;;;;;9.30;6.37;;;;;;;;;;5026188;28;20483;-86
2024/01/06 09:50:53;;;;;;;10.83;6.77;;;;;;;;;;5020582;28;20525;-87
2024/01/06 09:53:24;;;;;;;11.20;6.97;;;;;;;;;;5033471;28;20443;-85
2024/01/06 09:55:55;;;;;;;10.93;6.97;;;;;;;;;;5025993;28;20520;-87
2024/01/06 09:58:32;;;;;;;9.23;6.53;;;;;;;;;;5044553;28;20460;-88
2024/01/06 10:01:09;;;;;;;11.97;7.57;;;;;;;;;;5045044;28;20461;-88
2024/01/06 10:03:39;;;;;;;10.50;6.30;;;;;;;;;;5046299;28;20471;-88
2024/01/06 10:06:17;;;;;;;9.23;6.17;;;;;;;;;;5027889;28;21212;-83
2024/01/06 10:08:53;;;;;;;11.07;6.30;;;;;;;;;;5044589;28;20441;-86
2024/01/06 10:11:40;;;;;;;9.60;6.90;;;;;;;;;;5031419;28;20898;-88
2024/01/06 10:17:20;;;;;;;;;;;;;;;;;;;;;
2024/01/06 10:19:53;;;;;;;12.40;7.50;;;;;;;;;;5055785;28;20525;-87
2024/01/06 10:28:28;;;;;;;9.90;6.80;;;;;;;;;;5072297;22;20496;-86
2024/01/06 10:34:09;;;;;;;9.90;5.80;;;;;;;;;;5061678;28;20459;-86
2024/01/06 10:36:59;;;;;;;9.83;5.13;;;;;;;;;;5052095;28;20495;-86
2024/01/06 10:39:44;;;;;;;10.23;5.73;;;;;;;;;;5018959;28;20438;-86
2024/01/06 10:42:24;;;;;;;9.77;6.10;;;;;;;;;;5051307;28;20457;-84
2024/01/06 10:48:10;;;;;;;10.63;6.50;;;;;;;;;;5051868;28;20444;-88
2024/01/06 10:51:06;;;;;;;7.83;5.47;;;;;;;;;;5029805;28;20458;-89
2024/01/06 10:53:48;;;;;;;8.10;5.27;;;;;;;;;;5058063;28;20441;-87
2024/01/06 10:56:46;;;;;;;11.00;5.80;;;;;;;;;;5033640;28;20454;-88
2024/01/06 10:59:32;;;;;;;8.87;5.80;;;;;;;;;;5033114;28;20723;-87
2024/01/06 11:02:09;;;;;;;9.43;5.40;;;;;;;;;;5031053;28;20448;-88
2024/01/06 11:04:45;;;;;;;9.43;5.50;;;;;;;;;;5035491;28;20445;-88
2024/01/06 11:07:29;;;;;;;9.90;6.33;;;;;;;;;;5028585;28;20551;-88
2024/01/06 11:10:28;;;;;;;8.13;5.77;;;;;;;;;;5045956;28;20452;-86
2024/01/06 11:16:07;;;;;;;9.03;5.80;;;;;;;;;;5022093;28;20468;-87
2024/01/06 11:18:57;;;;;;;10.87;6.23;;;;;;;;;;5026458;28;20472;-88
2024/01/06 11:21:42;;;;;;;9.37;5.60;;;;;;;;;;5035190;28;20454;-86
2024/01/06 11:24:25;;;;;;;9.23;5.80;;;;;;;;;;5043398;28;20525;-84
2024/01/06 11:27:19;;;;;;;;;;;;;;;;;;;;;
2024/01/06 11:30:07;;;;;;;11.17;6.60;;;;;;;;;;5046412;28;20450;-87
2024/01/06 11:32:46;;;;;;;10.20;6.23;;;;;;;;;;5030631;28;20515;-86
2024/01/06 11:35:31;;;;;;;8.60;7.00;;;;;;;;;;5025731;28;20514;-87
2024/01/06 11:38:04;;;;;;;9.40;6.00;;;;;;;;;;5040205;28;20462;-86
2024/01/06 11:40:44;;;;;;;11.00;6.43;;;;;;;;;;5027595;28;20446;-87
2024/01/06 11:46:36;;;;;;;9.27;5.80;;;;;;;;;;5034101;28;20586;-86
2024/01/06 11:52:42;;;;;;;7.27;4.43;;;;;;;;;;5045998;28;20531;-88
2024/01/06 11:55:57;;;;;;;6.60;4.77;;;;;;;;;;5041367;28;20448;-88
2024/01/06 11:58:33;;;;;;;9.23;6.03;;;;;;;;;;5136994;22;20476;-86
2024/01/06 12:01:35;;;;;;;10.30;6.20;;;;;;;;;;5074587;28;20464;-88
2024/01/06 12:07:35;;;;;;;6.43;4.20;;;;;;;;;;5066377;28;20666;-83
2024/01/06 12:10:33;;;;;;;7.43;4.90;;;;;;;;;;4970333;28;20608;-86
2024/01/06 12:13:50;;;;;;;;;;;;;;;;;;;;;
2024/01/06 12:16:27;;;;;;;9.47;6.00;;;;;;;;;;5027167;28;20477;-88
2024/01/06 12:19:11;;;;;;;8.20;5.57;;;;;;;;;;5037947;28;20445;-88
2024/01/06 12:21:41;;;;;;;10.27;6.03;;;;;;;;;;5035285;28;20442;-87
2024/01/06 12:24:44;;;;;;;11.30;6.40;;;;;;;;;;5038309;28;20454;-86
2024/01/06 12:30:48;;;;;;;12.73;7.27;;;;;;;;;;5074663;28;20473;-87
2024/01/06 12:36:46;;;;;;;10.80;6.60;;;;;;;;;;5058884;28;20485;-86
2024/01/06 12:39:42;;;;;;;11.73;6.90;;;;;;;;;;5033506;28;20455;-88
2024/01/06 12:42:39;;;;;;;12.43;7.80;;;;;;;;;;4992771;28;20443;-87
2024/01/06 12:48:54;;;;;;;11.47;6.87;;;;;;;;;;4938124;28;20486;-86
2024/01/06 12:52:11;;;;;;;10.77;6.10;;;;;;;;;;4980316;28;20966;-87
2024/01/06 12:54:56;;;;;;;9.13;6.17;;;;;;;;;;4986067;28;20456;-86
2024/01/06 13:01:17;;;;;;;12.17;7.00;;;;;;;;;;4954227;28;21731;-87
2024/01/06 13:05:30;;;;;;;;;;;;;;;;;;;;;
2024/01/06 13:07:52;;;;;;;;;;;;;;;;;;;;;
2024/01/06 13:11:02;;;;;;;11.90;7.23;;;;;;;;;;4991676;28;20470;-89
2024/01/06 13:13:54;;;;;;;11.80;7.07;;;;;;;;;;4961714;28;20469;-87
2024/01/06 13:16:48;;;;;;;10.27;7.07;;;;;;;;;;4986354;28;20597;-87
2024/01/06 13:22:53;;;;;;;12.67;6.77;;;;;;;;;;4958448;28;20659;-88
2024/01/06 13:26:17;;;;;;;11.17;5.97;;;;;;;;;;4919204;29;20451;-85
2024/01/06 13:32:48;;;;;;;13.40;7.67;;;;;;;;;;4801370;29;20593;-85
2024/01/06 13:39:25;;;;;;;14.77;8.53;;;;;;;;;;4849447;29;20517;-86
2024/01/06 13:42:15;;;;;;;13.23;9.10;;;;;;;;;;4835816;29;20521;-85
2024/01/06 13:44:50;;;;;;;19.37;10.27;;;;;;;;;;4858472;29;20466;-85
2024/01/06 13:47:34;;;;;;;17.10;10.03;;;;;;;;;;4847807;29;20493;-89
2024/01/06 13:50:15;;;;;;;18.13;10.00;;;;;;;;;;4902155;29;20470;-86
2024/01/06 13:53:02;;;;;;;15.77;8.73;;;;;;;;;;4913344;29;21728;-88
2024/01/06 13:55:45;;;;;;;16.47;9.77;;;;;;;;;;4910235;29;20590;-85
2024/01/06 14:01:34;;;;;;;15.37;8.90;;;;;;;;;;4905707;29;20539;-87
2024/01/06 14:04:34;;;;;;;16.70;10.37;;;;;;;;;;4908011;29;20490;-87
2024/01/06 14:10:39;;;;;;;18.47;10.27;;;;;;;;;;4968914;28;20458;-88
2024/01/06 14:13:52;;;;;;;18.77;10.27;;;;;;;;;;4965712;28;20464;-89
2024/01/06 14:16:43;;;;;;;17.30;10.30;;;;;;;;;;4888647;28;20464;-85
2024/01/06 14:20:13;;;;;;;;;;;;;;;;;;;;;
2024/01/06 14:23:00;;;;;;;17.63;10.40;;;;;;;;;;4971203;28;20525;-87
2024/01/06 14:25:39;;;;;;;17.37;10.10;;;;;;;;;;4971089;28;20465;-85
2024/01/06 14:28:24;;;;;;;16.50;10.50;;;;;;;;;;4953249;28;20488;-89
2024/01/06 14:30:59;;;;;;;18.70;10.50;;;;;;;;;;4957128;28;20947;-88
2024/01/06 14:33:30;;;;;;;17.67;9.17;;;;;;;;;;4956056;28;20563;-88
2024/01/06 14:36:14;;;;;;;14.07;9.07;;;;;;;;;;4969141;28;20528;-86
2024/01/06 14:39:06;;;;;;;15.80;10.53;;;;;;;;;;4983558;28;20455;-87
2024/01/06 14:41:38;;;;;;;15.43;10.03;;;;;;;;;;4972975;28;20484;-88
2024/01/06 14:44:22;;;;;;;19.97;11.00;;;;;;;;;;4960336;28;21616;-86
2024/01/06 14:47:03;;;;;;;17.83;9.40;;;;;;;;;;4958517;28;20476;-87
2024/01/06 14:49:36;;;;;;;17.17;11.07;;;;;;;;;;4973261;28;20528;-84
2024/01/06 14:52:16;;;;;;;18.87;10.30;;;;;;;;;;4963421;28;20492;-86
2024/01/06 14:55:03;;;;;;;18.57;10.10;;;;;;;;;;4977324;28;20436;-85
2024/01/06 14:57:52;;;;;;;18.60;9.80;;;;;;;;;;4901205;29;20451;-87
2024/01/06 15:00:32;;;;;;;15.37;9.30;;;;;;;;;;4899819;29;20472;-87
2024/01/06 15:03:18;;;;;;;15.40;9.57;;;;;;;;;;4899339;29;20581;-85
2024/01/06 15:05:48;;;;;;;13.43;8.67;;;;;;;;;;4902937;29;20475;-84
2024/01/06 15:08:21;;;;;;;17.77;11.33;;;;;;;;;;4900086;29;20558;-85
2024/01/06 15:11:04;;;;;;;14.80;9.47;;;;;;;;;;4895811;29;20479;-85
2024/01/06 15:13:47;;;;;;;18.67;11.00;;;;;;;;;;4892502;29;20942;-87
2024/01/06 15:16:38;;;;;;;22.80;10.97;;;;;;;;;;4898479;29;20451;-88
2024/01/06 15:19:12;;;;;;;18.83;10.10;;;;;;;;;;4891880;29;20464;-88
2024/01/06 15:21:47;;;;;;;18.17;11.10;;;;;;;;;;4888014;29;20543;-87
2024/01/06 15:24:37;;;;;;;21.40;11.40;;;;;;;;;;4881771;29;20451;-87
2024/01/06 15:27:17;;;;;;;19.67;11.50;;;;;;;;;;4893978;29;20514;-87
2024/01/06 15:29:51;;;;;;;24.57;10.93;;;;;;;;;;4881250;29;20463;-87
2024/01/06 15:32:22;;;;;;;18.47;10.43;;;;;;;;;;4895887;29;20463;-87
2024/01/06 15:35:14;;;;;;;16.63;10.53;;;;;;;;;;4928935;28;20456;-85
2024/01/06 15:37:44;;;;;;;17.93;9.73;;;;;;;;;;4970604;28;21698;-88
2024/01/06 15:40:33;;;;;;;19.63;11.20;;;;;;;;;;4942685;28;20438;-85
2024/01/06 15:43:09;;;;;;;16.30;10.37;;;;;;;;;;4952485;28;20474;-87
2024/01/06 15:46:08;;;;;;;18.60;12.13;;;;;;;;;;4952278;28;20546;-86
2024/01/06 15:48:52;;;;;;;20.10;11.80;;;;;;;;;;4920614;28;20493;-86
2024/01/06 15:54:46;;;;;;;23.97;13.27;;;;;;;;;;4930969;28;20452;-86
2024/01/06 15:57:30;;;;;;;32.00;15.67;;;;;;;;;;4961134;28;20469;-87
2024/01/06 16:00:12;;;;;;;29.63;16.17;;;;;;;;;;4942542;28;20471;-86
2024/01/06 16:02:52;;;;;;;31.83;16.40;;;;;;;;;;4959450;28;20489;-87
2024/01/06 16:05:29;;;;;;;30.77;16.90;;;;;;;;;;4944551;28;20461;-87
2024/01/06 16:08:10;;;;;;;29.67;16.60;;;;;;;;;;4960478;28;20516;-86
2024/01/06 16:10:43;;;;;;;24.93;15.30;;;;;;;;;;4956241;28;20458;-85
2024/01/06 16:13:19;;;;;;;21.37;12.97;;;;;;;;;;4940294;28;20612;-86
2024/01/06 16:16:01;;;;;;;23.23;14.17;;;;;;;;;;4942758;28;20452;-85
2024/01/06 16:18:56;;;;;;;21.60;13.83;;;;;;;;;;4958810;28;20458;-88
2024/01/06 16:21:35;;;;;;;25.60;14.97;;;;;;;;;;4948852;28;21411;-85
2024/01/06 16:24:29;;;;;;;24.37;15.93;;;;;;;;;;4961236;28;20479;-86
2024/01/06 16:27:16;;;;;;;21.97;13.80;;;;;;;;;;4957739;28;20488;-88
2024/01/06 16:29:57;;;;;;;22.43;14.17;;;;;;;;;;4934638;28;20544;-86
2024/01/06 16:32:40;;;;;;;23.80;14.47;;;;;;;;;;4939665;28;20536;-88
2024/01/06 16:35:30;;;;;;;20.83;13.33;;;;;;;;;;4936069;28;20940;-89
2024/01/06 16:37:59;;;;;;;22.47;13.00;;;;;;;;;;4944050;28;20484;-85
2024/01/06 16:40:32;;;;;;;20.70;13.50;;;;;;;;;;4939271;28;20488;-89
2024/01/06 16:43:15;;;;;;;19.40;13.27;;;;;;;;;;4948828;28;20596;-87
2024/01/06 16:45:48;;;;;;;19.40;11.13;;;;;;;;;;4932119;28;20542;-86
2024/01/06 16:48:18;;;;;;;20.00;11.67;;;;;;;;;;4940985;28;20504;-87
2024/01/06 16:50:53;;;;;;;15.57;10.30;;;;;;;;;;4962894;28;20508;-84
2024/01/06 16:53:26;;;;;;;14.90;8.30;;;;;;;;;;4944163;28;20477;-88
2024/01/06 16:55:58;;;;;;;10.50;7.77;;;;;;;;;;4962284;28;21381;-87
2024/01/06 16:58:32;;;;;;;12.93;7.20;;;;;;;;;;4961057;28;20461;-88
2024/01/06 17:01:07;;;;;;;12.50;8.53;;;;;;;;;;4960416;28;20830;-86
2024/01/06 17:03:55;;;;;;;14.73;9.37;;;;;;;;;;4947963;28;20563;-86